Time;durP1;ratioP1;P1;durP2;ratioP2;P2;SDS_P1;SDS_P2;PMS_P1;PMS_P2;Temp;Humidity;BMP_temperature;BMP_pressure;BME280_temperature;BME280_humidity;BME280_pressure;Samples;Min_cycle;Max_cycle;Signal;HPM_P1;HPM_P2
2021/09/17 00:00:39;;;;;;;14.02;6.57;;;;;;;23.35;62.93;99892.28;5040536;28;20045;-62
2021/09/17 00:03:05;;;;;;;12.95;5.53;;;;;;;23.37;62.90;99888.22;5045799;28;20028;-62
2021/09/17 00:05:32;;;;;;;21.70;5.97;;;;;;;23.40;62.75;99881.47;5045851;28;20542;-62
2021/09/17 00:07:57;;;;;;;21.38;6.97;;;;;;;23.35;62.76;99884.91;5041195;28;20026;-62
2021/09/17 00:10:23;;;;;;;14.90;6.20;;;;;;;23.40;62.63;99892.41;5044631;28;20032;-63
2021/09/17 00:12:49;;;;;;;13.57;6.07;;;;;;;23.38;62.54;99887.16;5051499;28;20029;-63
2021/09/17 00:15:16;;;;;;;16.77;6.63;;;;;;;23.37;62.40;99882.75;5044688;28;20331;-62
2021/09/17 00:17:42;;;;;;;19.40;6.47;;;;;;;23.37;62.09;99879.19;5041160;28;20041;-63
2021/09/17 00:20:10;;;;;;;14.85;5.90;;;;;;;23.36;62.52;99877.50;5041735;28;20029;-63
2021/09/17 00:22:35;;;;;;;19.80;6.35;;;;;;;23.31;62.47;99877.38;5041827;28;20418;-62
2021/09/17 00:25:01;;;;;;;15.50;5.32;;;;;;;23.33;62.43;99877.97;5047569;28;20193;-62
2021/09/17 00:27:26;;;;;;;15.88;5.85;;;;;;;23.29;62.73;99877.59;5047629;28;20108;-62
2021/09/17 00:29:52;;;;;;;14.15;5.70;;;;;;;23.28;62.79;99875.91;5039207;28;22204;-63
2021/09/17 00:32:17;;;;;;;17.90;6.13;;;;;;;23.27;62.51;99879.72;5043728;28;20098;-63
2021/09/17 00:34:43;;;;;;;17.58;5.68;;;;;;;23.25;62.70;99867.34;5043909;28;20025;-62
2021/09/17 00:37:08;;;;;;;19.23;5.97;;;;;;;23.22;62.57;99868.59;5043859;28;20107;-63
2021/09/17 00:39:34;;;;;;;18.85;5.78;;;;;;;23.24;62.84;99871.13;5043940;28;20045;-62
2021/09/17 00:41:59;;;;;;;15.65;6.15;;;;;;;23.19;62.88;99860.00;5043952;28;20486;-61
2021/09/17 00:44:28;;;;;;;12.88;6.05;;;;;;;22.95;62.86;99815.19;5043320;28;20151;-63
2021/09/17 00:46:54;;;;;;;14.65;5.75;;;;;;;23.17;63.09;99857.47;5043062;28;20095;-63
2021/09/17 00:49:20;;;;;;;17.15;5.97;;;;;;;23.16;63.02;99850.34;5045088;28;20413;-64
2021/09/17 00:51:47;;;;;;;14.90;5.88;;;;;;;23.17;62.81;99848.44;5048043;28;20029;-63
2021/09/17 00:54:14;;;;;;;12.93;5.55;;;;;;;23.14;63.04;99848.88;5039558;28;20036;-62
2021/09/17 00:56:39;;;;;;;20.25;5.93;;;;;;;23.10;63.17;99843.03;5043307;28;20037;-62
2021/09/17 00:59:05;;;;;;;18.67;5.72;;;;;;;23.09;63.00;99851.47;5039772;28;20104;-63
2021/09/17 01:01:30;;;;;;;16.05;5.95;;;;;;;23.08;62.92;99847.88;5044422;28;20078;-63
2021/09/17 01:03:56;;;;;;;13.30;5.22;;;;;;;23.00;63.16;99828.19;5043700;28;20056;-63
2021/09/17 01:06:21;;;;;;;16.73;5.60;;;;;;;23.09;62.90;99835.06;5040759;28;20035;-62
2021/09/17 01:08:47;;;;;;;17.33;5.88;;;;;;;22.94;63.01;99813.53;5038317;28;20086;-62
2021/09/17 01:11:14;;;;;;;12.32;5.22;;;;;;;23.04;63.01;99826.69;5039298;28;20048;-63
2021/09/17 01:13:40;;;;;;;13.85;5.25;;;;;;;23.02;62.73;99818.69;5039175;28;20029;-63
2021/09/17 01:16:06;;;;;;;13.90;5.82;;;;;;;23.01;62.53;99822.50;5042923;28;20033;-63
2021/09/17 01:18:31;;;;;;;17.17;5.95;;;;;;;23.01;62.49;99818.94;5042993;28;20031;-62
2021/09/17 01:20:58;;;;;;;10.80;5.38;;;;;;;22.97;62.47;99810.34;5044913;28;20054;-63
2021/09/17 01:23:24;;;;;;;16.40;6.07;;;;;;;22.93;62.58;99800.94;5041948;28;20355;-63
2021/09/17 01:25:49;;;;;;;13.00;4.97;;;;;;;22.91;62.50;99786.63;5040158;28;20064;-62
2021/09/17 01:28:21;;;;;;;12.98;5.55;;;;;;;22.93;62.08;99789.16;5044460;28;20026;-63
2021/09/17 01:30:46;;;;;;;13.25;5.53;;;;;;;22.97;62.28;99790.34;5044256;28;20037;-62
2021/09/17 01:33:12;;;;;;;20.50;6.35;;;;;;;22.86;62.43;99771.97;5046742;28;20025;-62
2021/09/17 01:35:37;;;;;;;19.02;5.03;;;;;;;22.93;62.03;99781.78;5045845;28;20040;-61
2021/09/17 01:38:03;;;;;;;15.52;5.60;;;;;;;22.94;62.31;99783.44;5047757;28;20091;-62
2021/09/17 01:40:28;;;;;;;12.88;5.53;;;;;;;22.96;62.24;99785.97;5041221;28;20475;-62
2021/09/17 01:42:54;;;;;;;19.30;5.93;;;;;;;22.95;62.24;99787.03;5042056;28;20048;-62
2021/09/17 01:45:19;;;;;;;20.92;5.85;;;;;;;22.94;62.09;99788.91;5041695;28;20033;-62
2021/09/17 01:47:45;;;;;;;13.55;5.20;;;;;;;22.93;62.26;99779.06;5049005;28;20440;-62
2021/09/17 01:50:11;;;;;;;19.83;5.60;;;;;;;22.92;62.24;99784.75;5049555;28;20731;-63
2021/09/17 01:52:37;;;;;;;18.92;6.47;;;;;;;22.92;62.37;99769.16;5054000;28;20475;-62
2021/09/17 01:55:03;;;;;;;12.80;5.18;;;;;;;22.89;62.49;99769.59;5045350;28;20033;-63
2021/09/17 01:57:29;;;;;;;13.07;5.80;;;;;;;22.91;62.59;99767.50;5046475;28;20041;-62
2021/09/17 01:59:54;;;;;;;13.88;4.82;;;;;;;22.90;62.54;99762.25;5049397;28;20384;-61
2021/09/17 02:02:20;;;;;;;18.17;6.28;;;;;;;22.90;62.57;99760.34;5044875;28;20506;-62
2021/09/17 02:04:45;;;;;;;17.95;5.45;;;;;;;22.89;62.87;99766.88;5046973;28;20022;-63
2021/09/17 02:07:11;;;;;;;13.13;5.20;;;;;;;22.89;62.71;99755.94;5045520;28;20037;-63
2021/09/17 02:09:36;;;;;;;13.35;4.80;;;;;;;22.88;62.82;99754.28;5042154;28;20029;-63
2021/09/17 02:12:02;;;;;;;15.15;5.40;;;;;;;22.81;62.84;99739.84;5047594;28;20063;-63
2021/09/17 02:14:27;;;;;;;15.38;5.55;;;;;;;22.86;62.75;99750.09;5048963;28;20123;-63
2021/09/17 02:16:53;;;;;;;14.45;5.35;;;;;;;22.87;63.04;99743.56;5046441;28;20395;-62
2021/09/17 02:19:18;;;;;;;12.40;5.90;;;;;;;22.83;63.04;99737.69;5046992;28;20844;-62
2021/09/17 02:21:48;;;;;;;12.00;5.00;;;;;;;22.85;63.05;99740.19;5049805;28;20036;-62
2021/09/17 02:24:14;;;;;;;22.50;5.47;;;;;;;22.82;63.18;99727.00;5047292;28;20033;-62
2021/09/17 02:26:39;;;;;;;14.95;5.20;;;;;;;22.80;63.39;99727.25;5047011;28;20039;-63
2021/09/17 02:29:05;;;;;;;17.40;5.20;;;;;;;22.79;63.46;99719.25;5047621;28;20029;-63
2021/09/17 02:31:31;;;;;;;11.48;5.03;;;;;;;22.77;63.47;99713.16;5045473;28;20116;-63
2021/09/17 02:33:56;;;;;;;16.80;5.75;;;;;;;22.75;63.66;99704.34;5043349;28;20027;-63
2021/09/17 02:36:22;;;;;;;16.85;5.68;;;;;;;22.76;63.90;99704.13;5046133;28;20024;-64
2021/09/17 02:38:47;;;;;;;22.45;5.60;;;;;;;22.72;63.77;99707.53;5043467;28;20119;-64
2021/09/17 02:41:13;;;;;;;13.73;5.55;;;;;;;22.76;64.19;99714.25;5046691;28;20080;-63
2021/09/17 02:43:38;;;;;;;13.48;5.55;;;;;;;22.75;64.20;99721.59;5048532;28;20099;-61
2021/09/17 02:46:04;;;;;;;13.73;5.72;;;;;;;22.75;64.41;99716.13;5045535;28;20035;-61
2021/09/17 02:48:29;;;;;;;13.32;5.10;;;;;;;22.74;64.35;99706.25;5047772;28;20471;-62
2021/09/17 02:50:55;;;;;;;15.95;5.85;;;;;;;22.69;64.42;99697.91;5045648;28;20029;-62
2021/09/17 02:53:21;;;;;;;13.20;5.60;;;;;;;22.74;64.47;99706.25;5047231;28;20106;-63
2021/09/17 02:55:46;;;;;;;17.60;6.03;;;;;;;22.72;64.89;99696.59;5042429;28;20064;-62
2021/09/17 03:01:15;;;;;;;17.50;6.65;;;;;;;22.68;65.10;99692.66;4969043;26;20050;-65
2021/09/17 03:03:41;;;;;;;19.67;6.13;;;;;;;22.67;65.24;99685.53;5008721;28;20041;-65
2021/09/17 03:06:07;;;;;;;14.15;5.43;;;;;;;22.65;65.18;99685.75;5008557;28;20034;-65
2021/09/17 03:08:32;;;;;;;14.23;5.25;;;;;;;22.64;65.55;99683.25;5010034;28;20022;-65
2021/09/17 03:10:57;;;;;;;19.00;5.60;;;;;;;22.60;65.64;99682.84;5007223;28;20479;-65
2021/09/17 03:13:26;;;;;;;15.73;5.47;;;;;;;22.64;65.57;99683.25;5010012;28;20491;-65
2021/09/17 03:15:53;;;;;;;19.00;6.03;;;;;;;22.59;65.75;99683.91;4992221;28;20022;-65
2021/09/17 03:18:19;;;;;;;13.60;5.18;;;;;;;22.61;65.68;99680.97;5007893;28;20464;-65
2021/09/17 03:20:44;;;;;;;16.52;5.60;;;;;;;22.62;65.90;99685.34;4997606;28;20033;-65
2021/09/17 03:23:11;;;;;;;15.27;6.35;;;;;;;22.55;65.88;99671.78;4993696;28;20527;-65
2021/09/17 03:25:37;;;;;;;21.95;5.75;;;;;;;22.59;66.23;99669.41;5008232;28;20026;-65
2021/09/17 03:28:02;;;;;;;15.95;5.88;;;;;;;22.59;66.42;99675.72;4992616;28;20113;-65
2021/09/17 03:30:28;;;;;;;13.07;5.90;;;;;;;22.56;66.37;99670.69;5009218;28;20056;-65
2021/09/17 03:32:53;;;;;;;21.85;6.55;;;;;;;22.57;66.68;99672.38;5007226;28;20387;-65
2021/09/17 03:35:19;;;;;;;15.35;5.65;;;;;;;22.56;66.89;99678.91;5010569;28;20047;-65
2021/09/17 03:37:44;;;;;;;18.80;6.00;;;;;;;22.54;67.08;99678.31;4993272;28;20033;-65
2021/09/17 03:40:10;;;;;;;18.27;6.32;;;;;;;22.52;67.42;99664.03;5008925;28;20730;-66
2021/09/17 03:42:35;;;;;;;17.92;6.35;;;;;;;22.54;67.27;99670.13;5004883;28;20034;-65
2021/09/17 03:45:01;;;;;;;16.08;6.20;;;;;;;22.50;67.61;99665.31;4993154;28;20045;-65
2021/09/17 03:47:26;;;;;;;16.75;5.80;;;;;;;22.53;67.62;99665.69;5007606;28;20029;-65
2021/09/17 03:49:52;;;;;;;13.57;5.63;;;;;;;22.45;67.52;99652.31;5008649;28;20053;-65
2021/09/17 03:52:18;;;;;;;14.98;5.40;;;;;;;22.51;67.69;99656.91;5006137;28;20049;-65
2021/09/17 03:54:43;;;;;;;24.00;6.40;;;;;;;22.49;67.85;99650.81;5006114;28;20018;-66
2021/09/17 03:57:09;;;;;;;20.45;7.35;;;;;;;22.48;67.79;99657.31;5005795;28;20037;-65
2021/09/17 03:59:34;;;;;;;16.65;7.32;;;;;;;22.45;67.84;99649.56;5008505;28;20054;-66
2021/09/17 04:02:00;;;;;;;16.30;6.28;;;;;;;22.41;67.93;99645.63;5004278;28;20321;-67
2021/09/17 04:04:27;;;;;;;20.58;7.10;;;;;;;22.42;67.99;99647.28;4992552;28;20442;-67
2021/09/17 04:06:53;;;;;;;19.52;6.72;;;;;;;22.42;68.11;99651.91;5009921;28;20028;-66
2021/09/17 04:09:18;;;;;;;18.08;6.72;;;;;;;22.35;68.53;99646.53;5002810;28;20128;-66
2021/09/17 04:11:45;;;;;;;14.35;5.78;;;;;;;22.36;68.73;99642.72;5000014;28;20022;-67
2021/09/17 04:14:11;;;;;;;19.98;6.80;;;;;;;22.31;69.07;99640.66;5006728;28;20037;-67
2021/09/17 04:16:36;;;;;;;16.92;7.63;;;;;;;22.30;69.22;99647.22;5002068;28;20079;-67
2021/09/17 04:19:02;;;;;;;18.33;6.93;;;;;;;22.30;69.41;99649.09;5004656;28;20101;-67
2021/09/17 04:21:27;;;;;;;14.20;6.63;;;;;;;22.28;69.70;99652.06;5002799;28;20037;-66
2021/09/17 04:23:53;;;;;;;17.77;6.93;;;;;;;22.28;70.17;99653.97;4997365;28;20484;-67
2021/09/17 04:26:19;;;;;;;16.13;6.60;;;;;;;22.26;70.27;99656.94;5004543;28;20021;-66
2021/09/17 04:28:45;;;;;;;18.20;6.50;;;;;;;22.26;70.53;99662.38;5004740;28;20131;-67
2021/09/17 04:31:10;;;;;;;18.67;6.40;;;;;;;22.22;70.54;99646.66;5006390;28;20034;-67
2021/09/17 04:33:36;;;;;;;18.00;6.20;;;;;;;22.26;71.03;99658.81;5015397;28;20061;-67
2021/09/17 04:36:01;;;;;;;16.38;6.45;;;;;;;22.24;71.07;99655.47;5001339;28;20118;-66
2021/09/17 04:38:27;;;;;;;16.48;5.65;;;;;;;22.24;71.58;99648.09;5003872;28;20120;-66
2021/09/17 04:40:53;;;;;;;17.90;6.05;;;;;;;22.25;71.86;99647.03;5001099;28;20053;-67
2021/09/17 04:43:19;;;;;;;14.27;5.45;;;;;;;22.17;71.97;99630.09;5003958;28;20392;-67
2021/09/17 04:45:44;;;;;;;18.30;5.80;;;;;;;22.25;72.37;99640.75;5001601;28;20036;-67
2021/09/17 04:48:15;;;;;;;17.17;6.15;;;;;;;22.26;72.53;99656.09;5006279;28;20079;-66
2021/09/17 04:50:41;;;;;;;12.48;5.55;;;;;;;22.22;72.58;99655.69;4984726;28;20078;-66
2021/09/17 04:53:08;;;;;;;19.08;5.32;;;;;;;22.20;72.80;99648.78;4996910;28;20487;-66
2021/09/17 04:55:34;;;;;;;10.57;5.40;;;;;;;22.20;72.95;99651.50;4999410;28;20236;-66
2021/09/17 04:58:04;;;;;;;15.65;5.43;;;;;;;22.25;73.17;99663.44;4983905;28;21460;-66
2021/09/17 05:00:30;;;;;;;12.73;5.70;;;;;;;22.23;73.28;99667.47;4978243;28;20150;-66
2021/09/17 05:02:56;;;;;;;12.82;4.95;;;;;;;22.23;73.32;99672.91;5003673;28;20166;-66
2021/09/17 05:05:22;;;;;;;12.48;5.68;;;;;;;22.22;73.57;99674.00;5014640;28;20031;-66
2021/09/17 05:07:48;;;;;;;13.82;5.75;;;;;;;22.19;73.52;99663.50;5003175;28;20058;-66
2021/09/17 05:10:13;;;;;;;16.27;5.82;;;;;;;22.24;73.75;99667.22;5002192;28;20115;-66
2021/09/17 05:12:38;;;;;;;16.38;5.72;;;;;;;22.15;73.98;99656.81;4990450;28;20032;-67
2021/09/17 05:15:05;;;;;;;14.95;5.72;;;;;;;22.23;74.33;99668.31;4997828;28;20057;-67
2021/09/17 05:17:30;;;;;;;9.57;5.45;;;;;;;22.22;74.58;99672.06;5003160;28;20038;-66
2021/09/17 05:19:55;;;;;;;18.48;6.38;;;;;;;22.27;74.60;99676.88;5004047;28;20029;-66
2021/09/17 05:22:21;;;;;;;22.48;6.00;;;;;;;22.23;74.87;99671.03;4992357;28;20054;-66
2021/09/17 05:24:46;;;;;;;17.27;6.18;;;;;;;22.26;75.18;99667.00;5004169;28;20112;-66
2021/09/17 05:27:14;;;;;;;15.02;6.40;;;;;;;22.19;75.42;99658.88;5002288;28;20038;-67
2021/09/17 05:29:40;;;;;;;16.40;6.78;;;;;;;22.28;75.63;99673.91;4995285;28;20034;-67
2021/09/17 05:32:06;;;;;;;19.67;5.93;;;;;;;22.29;75.94;99670.09;4994648;28;20029;-67
2021/09/17 05:34:32;;;;;;;17.17;6.47;;;;;;;22.29;76.20;99678.31;5010176;28;20427;-66
2021/09/17 05:36:57;;;;;;;16.35;6.55;;;;;;;22.30;76.52;99677.25;5009154;28;20046;-66
2021/09/17 05:39:22;;;;;;;16.70;6.85;;;;;;;22.31;76.75;99665.25;5009547;28;20088;-66
2021/09/17 05:41:49;;;;;;;17.42;6.35;;;;;;;22.33;76.95;99657.69;5008524;28;20030;-66
2021/09/17 05:44:14;;;;;;;12.52;6.03;;;;;;;22.37;77.27;99668.97;5005049;28;20025;-66
2021/09/17 05:46:40;;;;;;;18.45;5.95;;;;;;;22.34;77.60;99658.50;4994760;28;20044;-66
2021/09/17 05:49:05;;;;;;;14.75;6.28;;;;;;;22.40;77.53;99656.78;5009331;28;20029;-67
2021/09/17 05:51:31;;;;;;;15.38;6.30;;;;;;;22.38;77.54;99660.56;5006730;28;20092;-66
2021/09/17 05:53:56;;;;;;;13.25;6.18;;;;;;;22.41;77.98;99650.25;5006702;28;20026;-66
2021/09/17 05:56:22;;;;;;;13.30;5.75;;;;;;;22.39;77.92;99655.94;4990442;28;20503;-66
2021/09/17 05:58:47;;;;;;;16.85;6.50;;;;;;;22.38;77.99;99645.25;5008965;28;21594;-66
2021/09/17 06:01:12;;;;;;;15.32;5.88;;;;;;;22.41;78.48;99644.78;5005565;28;20047;-66
2021/09/17 06:03:41;;;;;;;13.43;5.88;;;;;;;22.49;78.67;99650.81;5007973;28;20030;-66
2021/09/17 06:06:06;;;;;;;15.43;6.00;;;;;;;22.54;78.74;99659.19;5011871;28;20116;-66
2021/09/17 06:08:32;;;;;;;14.65;6.75;;;;;;;22.68;78.98;99657.09;4994160;28;20050;-66
2021/09/17 06:10:57;;;;;;;13.02;6.07;;;;;;;22.70;78.88;99655.00;5009359;28;20028;-66
2021/09/17 06:13:23;;;;;;;9.70;6.35;;;;;;;22.68;79.37;99665.31;4993279;28;20024;-66
2021/09/17 06:15:48;;;;;;;13.02;8.05;;;;;;;22.66;79.71;99667.47;5009160;28;20042;-67
2021/09/17 06:18:14;;;;;;;18.42;7.93;;;;;;;22.74;79.87;99672.59;4991583;28;20045;-65
2021/09/17 06:20:39;;;;;;;14.43;8.02;;;;;;;22.72;80.26;99671.97;5010910;28;20044;-66
2021/09/17 06:23:04;;;;;;;12.45;7.18;;;;;;;22.75;81.11;99671.53;5006843;28;20041;-66
2021/09/17 06:25:30;;;;;;;18.42;8.20;;;;;;;22.68;81.74;99687.19;5010578;28;20034;-66
2021/09/17 06:27:55;;;;;;;15.60;7.30;;;;;;;22.60;82.50;99687.50;5010708;28;20022;-66
2021/09/17 06:30:23;;;;;;;14.02;6.55;;;;;;;22.60;83.14;99692.97;5009977;28;20040;-66
2021/09/17 06:32:48;;;;;;;9.85;7.03;;;;;;;22.59;83.89;99694.84;5016579;28;20048;-66
2021/09/17 06:35:14;;;;;;;16.48;6.28;;;;;;;22.42;84.51;99685.56;5010733;28;20038;-66
2021/09/17 06:37:44;;;;;;;12.38;7.03;;;;;;;22.40;85.54;99697.78;5007935;28;20069;-66
2021/09/17 06:40:11;;;;;;;11.15;6.10;;;;;;;22.37;86.03;99703.69;5010839;28;20037;-65
2021/09/17 06:42:36;;;;;;;11.43;5.78;;;;;;;22.33;86.35;99703.28;5007783;28;20026;-65
2021/09/17 06:45:02;;;;;;;9.98;6.13;;;;;;;22.30;86.77;99709.22;5005502;28;20057;-66
2021/09/17 06:47:27;;;;;;;9.30;4.75;;;;;;;22.39;86.29;99710.59;5012818;28;20022;-66
2021/09/17 06:49:53;;;;;;;8.07;5.13;;;;;;;22.24;87.02;99704.63;5009778;28;20383;-66
2021/09/17 06:52:18;;;;;;;9.38;4.82;;;;;;;22.29;86.78;99697.44;5009384;28;20037;-66
2021/09/17 06:54:43;;;;;;;8.50;4.10;;;;;;;22.33;86.30;99701.41;5009994;28;20029;-65
2021/09/17 06:57:09;;;;;;;7.05;4.65;;;;;;;22.51;85.92;99699.78;5012377;28;20029;-66
2021/09/17 06:59:35;;;;;;;7.30;4.10;;;;;;;22.57;85.92;99710.63;5007384;28;20042;-66
2021/09/17 07:02:00;;;;;;;5.55;3.53;;;;;;;22.59;85.61;99704.94;4992883;28;20529;-66
2021/09/17 07:04:26;;;;;;;5.63;3.40;;;;;;;22.74;84.13;99705.41;5010467;28;20510;-66
2021/09/17 07:06:51;;;;;;;5.05;2.85;;;;;;;22.82;83.58;99714.16;5007093;28;20516;-65
2021/09/17 07:09:16;;;;;;;6.75;3.03;;;;;;;22.90;83.10;99699.34;4989658;28;20029;-65
2021/09/17 07:11:42;;;;;;;6.18;3.25;;;;;;;23.10;82.67;99705.41;4992584;28;20022;-66
2021/09/17 07:14:07;;;;;;;4.53;2.60;;;;;;;23.23;81.14;99705.25;5007484;28;20022;-66
2021/09/17 07:16:33;;;;;;;4.47;2.83;;;;;;;23.33;79.82;99717.31;5001709;28;20049;-66
2021/09/17 07:18:58;;;;;;;5.65;3.05;;;;;;;23.41;78.93;99719.72;4986364;28;20056;-66
2021/09/17 07:21:23;;;;;;;9.00;2.95;;;;;;;23.40;78.54;99718.06;5000188;28;20067;-66
2021/09/17 07:23:49;;;;;;;5.63;2.15;;;;;;;23.44;77.62;99705.59;5003203;28;20026;-66
2021/09/17 07:26:15;;;;;;;7.07;2.30;;;;;;;23.46;77.83;99708.94;5007091;28;20026;-66
2021/09/17 07:28:40;;;;;;;5.13;2.40;;;;;;;23.67;76.29;99719.34;5002209;28;20030;-66
2021/09/17 07:31:05;;;;;;;11.10;3.00;;;;;;;23.73;75.66;99704.72;5008482;28;20037;-66
2021/09/17 07:33:31;;;;;;;3.30;2.28;;;;;;;23.90;74.88;99716.66;5004305;28;20113;-66
2021/09/17 07:35:56;;;;;;;3.50;2.17;;;;;;;24.06;73.96;99723.41;5009298;28;20072;-65
2021/09/17 07:38:22;;;;;;;5.32;2.33;;;;;;;24.21;72.71;99721.88;5006939;28;20445;-66
2021/09/17 07:40:47;;;;;;;6.78;2.55;;;;;;;24.42;70.96;99729.53;5009526;28;20030;-66
2021/09/17 07:43:13;;;;;;;2.38;1.80;;;;;;;24.58;69.89;99725.25;5005476;28;20045;-66
2021/09/17 07:45:38;;;;;;;2.33;1.95;;;;;;;24.68;68.78;99730.13;5006748;28;20029;-66
2021/09/17 07:48:04;;;;;;;3.47;1.63;;;;;;;24.78;68.17;99706.53;5009881;28;20025;-66
2021/09/17 07:50:30;;;;;;;4.45;2.00;;;;;;;25.15;67.60;99713.34;5009031;28;20026;-67
2021/09/17 07:52:56;;;;;;;3.25;1.63;;;;;;;25.97;64.46;99690.81;5007071;28;20029;-67
2021/09/17 07:55:22;;;;;;;3.75;1.38;;;;;;;27.12;58.84;99702.72;5005945;28;20022;-67
2021/09/17 07:57:47;;;;;;;6.53;1.83;;;;;;;27.82;56.93;99697.19;5004885;28;20026;-66
2021/09/17 08:00:15;;;;;;;7.07;2.00;;;;;;;28.54;53.62;99699.19;4989635;28;20124;-66
2021/09/17 08:02:42;;;;;;;4.97;1.50;;;;;;;29.44;51.42;99700.75;5006700;28;20042;-67
2021/09/17 08:05:08;;;;;;;1.48;1.10;;;;;;;30.45;48.04;99681.25;5008958;28;20112;-67
2021/09/17 08:07:33;;;;;;;4.60;1.30;;;;;;;31.59;45.46;99702.50;5007431;28;20682;-67
2021/09/17 08:09:59;;;;;;;18.67;1.88;;;;;;;32.26;42.94;99703.41;5008429;28;20056;-67
2021/09/17 08:12:24;;;;;;;4.15;1.50;;;;;;;32.04;42.62;99703.03;5005192;28;20026;-67
2021/09/17 08:14:50;;;;;;;2.53;1.35;;;;;;;31.45;43.93;99710.63;4988399;28;20096;-66
2021/09/17 08:17:15;;;;;;;8.20;3.92;;;;;;;30.70;45.51;99712.78;5006845;28;20037;-67
2021/09/17 08:19:40;;;;;;;17.83;8.63;;;;;;;30.00;47.16;99713.63;5007388;28;20033;-67
2021/09/17 08:22:06;;;;;;;9.38;2.70;;;;;;;30.08;47.38;99713.09;5003352;28;20083;-67
2021/09/17 08:24:32;;;;;;;2.20;1.95;;;;;;;30.61;46.21;99704.22;5006088;28;20495;-67
2021/09/17 08:27:00;;;;;;;5.95;1.80;;;;;;;31.64;44.40;99703.31;5005131;28;20118;-64
2021/09/17 08:29:26;;;;;;;3.88;2.03;;;;;;;32.27;42.79;99710.63;5008288;28;20022;-66
2021/09/17 08:31:54;;;;;;;10.48;2.63;;;;;;;31.95;42.18;99707.53;5004482;28;20068;-67
2021/09/17 08:34:20;;;;;;;5.00;1.58;;;;;;;31.53;43.40;99718.31;5006036;28;20483;-67
2021/09/17 08:36:46;;;;;;;4.40;2.05;;;;;;;32.19;42.21;99711.25;5009986;28;20022;-67
2021/09/17 08:39:11;;;;;;;9.40;1.73;;;;;;;32.88;41.07;99712.88;5009843;28;20586;-67
2021/09/17 08:41:38;;;;;;;8.57;2.28;;;;;;;33.53;39.49;99709.31;5005383;28;20056;-67
2021/09/17 08:44:03;;;;;;;5.78;2.00;;;;;;;33.27;39.80;99713.50;5004654;28;20115;-64
2021/09/17 08:46:30;;;;;;;2.25;1.98;;;;;;;32.89;39.98;99712.59;5010126;28;20038;-64
2021/09/17 08:48:56;;;;;;;8.88;1.98;;;;;;;32.16;41.57;99700.72;5006619;28;21895;-64
2021/09/17 08:51:22;;;;;;;6.68;1.80;;;;;;;31.79;42.82;99724.56;5019440;28;20045;-64
2021/09/17 08:53:48;;;;;;;5.47;2.05;;;;;;;31.37;44.19;99730.59;5004001;28;20025;-64
2021/09/17 08:56:17;;;;;;;7.25;1.88;;;;;;;31.24;45.19;99722.88;5007401;28;20030;-64
2021/09/17 08:58:44;;;;;;;3.22;1.73;;;;;;;30.47;46.97;99714.22;5008725;28;20040;-64
2021/09/17 09:01:32;;;;;;;6.93;1.85;;;;;;;29.69;49.35;99726.56;5008526;28;20050;-64
2021/09/17 09:04:02;;;;;;;5.13;2.15;;;;;;;29.39;51.22;99723.69;4987912;28;20052;-64
2021/09/17 09:06:37;;;;;;;2.80;1.80;;;;;;;29.84;50.65;99718.31;4986279;28;20026;-64
2021/09/17 09:09:17;;;;;;;1.83;1.45;;;;;;;30.83;47.68;99712.22;4991641;28;20050;-64
2021/09/17 09:11:46;;;;;;;5.93;1.50;;;;;;;31.24;45.35;99697.94;4988432;28;20033;-64
2021/09/17 09:14:13;;;;;;;3.20;1.70;;;;;;;31.49;44.46;99699.78;4999513;28;20038;-64
2021/09/17 09:16:51;;;;;;;3.00;1.50;;;;;;;31.35;44.31;99701.50;4991267;28;20507;-64
2021/09/17 09:19:30;;;;;;;3.38;1.58;;;;;;;30.76;45.25;99700.59;4992519;28;20025;-65
2021/09/17 09:22:06;;;;;;;3.05;1.70;;;;;;;30.04;46.96;99704.50;5006793;28;20038;-67
2021/09/17 09:24:39;;;;;;;3.97;1.60;;;;;;;29.38;49.15;99730.31;5008588;28;20064;-67
2021/09/17 09:27:15;;;;;;;4.20;1.65;;;;;;;28.81;50.99;99736.91;4990236;28;20041;-67
2021/09/17 09:29:46;;;;;;;3.90;1.58;;;;;;;27.97;53.53;99730.44;5008537;28;20026;-67
2021/09/17 09:32:29;;;;;;;8.70;1.63;;;;;;;27.14;55.91;99741.00;5008309;28;20038;-67
2021/09/17 09:35:01;;;;;;;1.05;1.00;;;;;;;26.60;57.67;99734.44;5005721;28;20038;-67
2021/09/17 09:37:29;;;;;;;2.67;1.10;;;;;;;26.28;59.08;99733.38;5007284;28;20037;-67
2021/09/17 09:40:09;;;;;;;2.28;1.00;;;;;;;26.01;59.97;99716.72;5008096;28;20080;-67
2021/09/17 09:42:36;;;;;;;9.88;1.40;;;;;;;25.80;61.25;99733.88;5001570;28;20428;-65
2021/09/17 09:45:17;;;;;;;1.52;0.93;;;;;;;25.59;61.98;99737.34;5005156;28;20109;-67
2021/09/17 09:47:55;;;;;;;4.25;1.10;;;;;;;25.40;62.98;99724.03;5006604;28;20034;-67
2021/09/17 09:50:29;;;;;;;1.63;1.13;;;;;;;25.57;62.36;99724.94;5010186;28;20713;-67
2021/09/17 09:52:55;;;;;;;;;;;;;;;25.47;62.82;99730.25;5019261;28;20113;-66
2021/09/17 09:55:22;;;;;;;2.03;1.13;;;;;;;25.38;62.93;99723.47;5012095;28;19917;-67
2021/09/17 09:57:47;;;;;;;2.45;1.20;;;;;;;25.46;62.85;99726.66;5005806;28;20105;-66
2021/09/17 10:00:14;;;;;;;6.07;1.35;;;;;;;25.32;63.25;99730.78;5010573;28;20052;-67
2021/09/17 10:02:42;;;;;;;3.33;1.58;;;;;;;25.31;63.25;99717.28;5007802;28;20034;-67
2021/09/17 10:05:10;;;;;;;1.92;1.33;;;;;;;25.35;63.23;99724.78;5007409;28;20029;-66
2021/09/17 10:07:36;;;;;;;2.25;1.40;;;;;;;25.38;63.16;99734.44;4990008;28;20113;-67
2021/09/17 10:10:04;;;;;;;1.67;1.30;;;;;;;25.46;63.15;99726.66;5010581;28;20057;-67
2021/09/17 10:12:29;;;;;;;5.60;1.33;;;;;;;25.48;62.92;99735.47;4989385;28;20400;-67
2021/09/17 10:14:57;;;;;;;3.72;1.65;;;;;;;25.54;62.22;99723.50;5006845;28;20034;-67
2021/09/17 10:17:32;;;;;;;2.33;1.40;;;;;;;25.55;61.14;99738.91;4991414;28;20030;-67
2021/09/17 10:19:59;;;;;;;3.45;0.98;;;;;;;25.52;60.63;99735.81;5012050;28;20437;-67
2021/09/17 10:22:38;;;;;;;2.38;1.02;;;;;;;25.51;59.33;99736.91;5008429;28;20044;-67
2021/09/17 10:25:05;;;;;;;2.35;1.00;;;;;;;25.46;59.34;99736.78;5011460;28;20492;-66
2021/09/17 10:27:30;;;;;;;3.88;1.20;;;;;;;25.36;59.35;99745.66;5013275;28;20456;-66
2021/09/17 10:29:59;;;;;;;2.20;1.00;;;;;;;25.35;58.94;99752.25;5011622;28;20026;-66
2021/09/17 10:32:27;;;;;;;2.33;0.90;;;;;;;25.18;59.66;99748.53;5012872;28;20059;-66
2021/09/17 10:35:13;;;;;;;6.50;1.08;;;;;;;25.10;60.34;99761.81;4993255;28;20046;-66
2021/09/17 10:37:56;;;;;;;1.10;1.00;;;;;;;24.98;60.77;99778.31;5012862;28;20037;-67
2021/09/17 10:40:55;;;;;;;1.23;1.13;;;;;;;24.86;61.11;99785.69;5009077;28;20408;-66
2021/09/17 10:43:37;;;;;;;5.15;1.83;;;;;;;24.73;60.72;99768.66;4990292;28;20068;-67
2021/09/17 10:46:29;;;;;;;5.90;1.63;;;;;;;24.52;61.54;99778.28;5010321;28;20459;-67
2021/09/17 10:48:57;;;;;;;4.85;1.40;;;;;;;24.44;62.12;99773.97;5027515;28;20056;-67
2021/09/17 10:51:40;;;;;;;4.85;1.55;;;;;;;24.41;61.36;99768.97;5005309;28;20026;-67
2021/09/17 10:54:10;;;;;;;2.30;1.70;;;;;;;24.43;61.11;99774.22;5008545;28;20057;-67
2021/09/17 10:56:47;;;;;;;3.35;1.60;;;;;;;24.21;62.02;99764.88;5012703;28;20041;-66
2021/09/17 10:59:40;;;;;;;4.78;2.60;;;;;;;24.22;61.45;99772.06;5009782;28;20472;-67
2021/09/17 11:02:08;;;;;;;2.28;1.90;;;;;;;24.04;62.08;99767.50;4994142;28;20058;-67
2021/09/17 11:04:36;;;;;;;1.70;1.60;;;;;;;23.91;62.26;99759.44;5007261;28;20488;-67
2021/09/17 11:07:17;;;;;;;2.88;1.63;;;;;;;23.76;63.03;99764.50;5006976;28;20618;-67
2021/09/17 11:09:52;;;;;;;2.08;1.67;;;;;;;23.71;63.30;99758.91;5011149;28;20041;-67
2021/09/17 11:12:20;;;;;;;2.13;1.75;;;;;;;23.71;62.75;99764.41;4989755;28;20038;-66
2021/09/17 11:15:00;;;;;;;3.15;1.88;;;;;;;23.65;62.86;99765.31;5008369;28;20037;-67
2021/09/17 11:17:56;;;;;;;4.22;2.20;;;;;;;23.62;62.39;99764.94;5011142;28;20492;-67
2021/09/17 11:20:26;;;;;;;2.17;1.98;;;;;;;23.55;62.66;99754.09;5009185;28;20100;-67
2021/09/17 11:23:02;;;;;;;4.25;1.95;;;;;;;23.56;62.74;99747.53;5008059;28;20032;-64
2021/09/17 11:25:43;;;;;;;4.75;2.30;;;;;;;23.83;61.26;99768.00;5006018;28;20037;-67
2021/09/17 11:28:28;;;;;;;6.03;1.83;;;;;;;23.94;60.38;99766.38;5008814;28;20025;-67
2021/09/17 11:31:15;;;;;;;2.83;2.35;;;;;;;23.87;60.13;99755.53;5006294;28;20029;-66
2021/09/17 11:33:41;;;;;;;3.80;2.15;;;;;;;23.91;59.95;99769.56;5009543;28;20120;-66